Time;durP1;ratioP1;P1;durP2;ratioP2;P2;SDS_P1;SDS_P2;PMS_P1;PMS_P2;Temp;Humidity;BMP_temperature;BMP_pressure;BME280_temperature;BME280_humidity;BME280_pressure;Samples;Min_cycle;Max_cycle;Signal;HPM_P1;HPM_P2
2023/03/25 00:00:20;;;;;;;1.40;1.30;;;;;;;5.50;96.49;98270.63;5045104;28;20033;-70
2023/03/25 00:02:48;;;;;;;1.35;1.35;;;;;;;5.49;96.72;98269.78;5044642;28;20367;-69
2023/03/25 00:05:15;;;;;;;0.50;0.50;;;;;;;5.44;96.53;98262.19;5044541;28;20025;-69
2023/03/25 00:07:41;;;;;;;2.10;1.15;;;;;;;5.42;96.84;98258.78;5045381;28;20021;-70
2023/03/25 00:10:07;;;;;;;0.40;0.40;;;;;;;5.41;96.47;98263.97;5047593;28;20032;-70
2023/03/25 00:12:33;;;;;;;0.50;0.50;;;;;;;5.39;96.65;98252.84;5048664;28;20029;-71
2023/03/25 00:14:59;;;;;;;1.38;1.38;;;;;;;5.37;96.66;98255.47;5048689;28;20025;-69
2023/03/25 00:17:27;;;;;;;0.50;0.50;;;;;;;5.38;97.02;98252.03;5046784;28;20448;-70
2023/03/25 00:19:55;;;;;;;2.70;2.53;;;;;;;5.33;96.81;98251.28;5047124;28;20030;-69
2023/03/25 00:22:21;;;;;;;4.72;4.32;;;;;;;5.32;97.34;98252.13;5047064;28;20493;-70
2023/03/25 00:24:47;;;;;;;0.50;0.50;;;;;;;5.30;97.35;98243.63;5048420;28;20034;-70
2023/03/25 00:27:16;;;;;;;0.50;0.50;;;;;;;5.30;97.36;98252.16;5048088;28;20033;-69
2023/03/25 00:29:42;;;;;;;0.47;0.47;;;;;;;5.28;97.53;98240.22;5048413;28;20084;-70
2023/03/25 00:32:08;;;;;;;0.40;0.40;;;;;;;5.27;98.04;98243.69;5047131;28;20021;-69
2023/03/25 00:34:34;;;;;;;0.50;0.50;;;;;;;5.26;98.21;98231.69;5048315;28;20025;-70
2023/03/25 00:37:01;;;;;;;0.50;0.50;;;;;;;5.24;98.56;98229.16;5048494;28;20026;-70
2023/03/25 00:39:27;;;;;;;0.40;0.40;;;;;;;5.33;98.75;98248.69;5046887;28;20056;-70
2023/03/25 00:41:53;;;;;;;0.70;0.70;;;;;;;5.36;98.61;98237.47;5046812;28;20017;-70
2023/03/25 00:44:18;;;;;;;0.50;0.50;;;;;;;5.39;98.65;98238.25;5047917;28;20036;-70
2023/03/25 00:46:44;;;;;;;0.50;0.50;;;;;;;5.40;98.49;98234.81;5047925;28;20087;-72
2023/03/25 00:49:11;;;;;;;0.40;0.40;;;;;;;5.38;98.66;98226.28;5048245;28;20071;-70
2023/03/25 00:51:37;;;;;;;6.43;5.88;;;;;;;5.45;98.80;98214.97;5046707;28;20025;-70
2023/03/25 00:54:03;;;;;;;0.40;0.40;;;;;;;5.49;98.67;98218.31;5048046;28;20091;-69
2023/03/25 00:56:30;;;;;;;0.52;0.52;;;;;;;5.50;98.83;98234.59;5046734;28;20534;-69
2023/03/25 00:58:56;;;;;;;0.40;0.40;;;;;;;5.51;98.67;98231.16;5047835;28;20044;-70
2023/03/25 01:01:26;;;;;;;0.50;0.50;;;;;;;5.54;98.54;98233.66;5047985;28;20470;-69
2023/03/25 01:03:59;;;;;;;1.20;1.20;;;;;;;5.58;98.27;98230.97;5047772;28;20343;-68
2023/03/25 01:06:34;;;;;;;0.50;0.50;;;;;;;5.59;98.60;98231.84;5047891;28;20025;-69
2023/03/25 01:09:03;;;;;;;0.50;0.50;;;;;;;5.60;97.76;98218.06;5046459;28;20096;-70
2023/03/25 01:11:33;;;;;;;0.50;0.50;;;;;;;5.62;97.93;98224.03;5046228;28;20029;-70
2023/03/25 01:13:59;;;;;;;0.50;0.50;;;;;;;5.55;97.75;98207.88;5046520;28;20022;-71
2023/03/25 01:16:26;;;;;;;0.88;0.88;;;;;;;5.59;97.30;98218.97;5047323;28;20050;-70
2023/03/25 01:18:52;;;;;;;0.50;0.50;;;;;;;5.59;97.42;98231.84;5046011;28;20029;-70
2023/03/25 01:21:17;;;;;;;0.40;0.40;;;;;;;5.61;97.32;98227.47;5046325;28;20029;-69
2023/03/25 01:23:43;;;;;;;0.70;0.70;;;;;;;5.65;97.13;98231.69;5047367;28;20540;-70
2023/03/25 01:26:09;;;;;;;0.40;0.40;;;;;;;5.60;97.34;98218.06;5047718;28;20085;-69
2023/03/25 01:28:34;;;;;;;0.40;0.40;;;;;;;5.62;96.97;98225.75;5047403;28;20474;-70
2023/03/25 01:31:01;;;;;;;0.50;0.50;;;;;;;5.61;96.72;98221.50;5047438;28;20370;-71
2023/03/25 01:33:27;;;;;;;0.50;0.50;;;;;;;5.60;96.82;98212.06;5045636;28;20021;-71
2023/03/25 01:35:52;;;;;;;0.40;0.40;;;;;;;5.66;96.87;98227.38;5047316;28;20484;-69
2023/03/25 01:38:18;;;;;;;0.40;0.40;;;;;;;5.66;96.69;98224.78;5046972;28;20052;-71
2023/03/25 01:40:45;;;;;;;0.40;0.40;;;;;;;5.66;96.46;98233.38;5047218;28;20473;-71
2023/03/25 01:43:14;;;;;;;5.03;4.63;;;;;;;5.68;96.12;98220.47;5047056;28;20029;-70
2023/03/25 01:45:40;;;;;;;0.50;0.50;;;;;;;5.64;96.23;98211.97;5047099;28;20035;-70
2023/03/25 01:48:11;;;;;;;0.50;0.50;;;;;;;5.65;95.93;98229.13;5046582;28;20045;-69
2023/03/25 01:50:43;;;;;;;0.60;0.60;;;;;;;5.62;95.82;98212.88;5047189;28;20048;-69
2023/03/25 01:53:09;;;;;;;0.40;0.40;;;;;;;5.58;95.55;98212.09;5045729;28;20482;-68
2023/03/25 01:55:36;;;;;;;0.50;0.50;;;;;;;5.66;96.10;98223.06;5046932;28;20021;-68
2023/03/25 01:58:06;;;;;;;0.50;0.50;;;;;;;5.65;95.66;98213.66;5046690;28;20097;-68
2023/03/25 02:00:32;;;;;;;0.40;0.40;;;;;;;5.61;95.75;98214.59;5046835;28;20032;-68
2023/03/25 02:03:00;;;;;;;2.28;2.17;;;;;;;5.57;95.85;98211.25;5046659;28;20024;-69
2023/03/25 02:05:34;;;;;;;1.38;1.38;;;;;;;5.61;95.64;98203.47;5046712;28;20013;-70
2023/03/25 02:08:02;;;;;;;0.50;0.50;;;;;;;5.61;95.80;98209.44;5046821;28;20073;-69
2023/03/25 02:10:28;;;;;;;0.80;0.80;;;;;;;5.64;95.87;98201.66;5046736;28;20029;-68
2023/03/25 02:12:54;;;;;;;0.70;0.70;;;;;;;5.71;95.70;98204.94;5045280;28;20129;-69
2023/03/25 02:15:20;;;;;;;0.47;0.47;;;;;;;5.70;96.02;98206.66;5045235;28;20036;-69
2023/03/25 02:17:51;;;;;;;0.60;0.60;;;;;;;5.75;96.33;98195.41;5046003;28;20410;-69
2023/03/25 02:20:23;;;;;;;0.40;0.40;;;;;;;5.74;96.11;98202.28;5046657;28;20026;-69
2023/03/25 02:23:13;;;;;;;0.50;0.50;;;;;;;5.74;95.87;98175.69;5046344;28;20037;-70
2023/03/25 02:25:59;;;;;;;0.50;0.50;;;;;;;5.73;95.48;98190.31;5044577;28;20029;-71
2023/03/25 02:28:38;;;;;;;0.50;0.50;;;;;;;5.72;95.81;98183.44;5046083;28;20024;-69
2023/03/25 02:31:36;;;;;;;0.50;0.50;;;;;;;5.70;95.86;98173.19;5044240;28;20079;-71
2023/03/25 02:34:01;;;;;;;0.45;0.45;;;;;;;5.67;95.50;98175.84;5037416;28;20035;-69
2023/03/25 02:37:04;;;;;;;0.47;0.47;;;;;;;5.70;95.79;98180.09;5044675;28;20049;-69
2023/03/25 02:39:46;;;;;;;0.50;0.50;;;;;;;5.70;95.76;98182.66;5044734;28;20103;-68
2023/03/25 02:42:25;;;;;;;0.60;0.60;;;;;;;5.70;95.77;98180.91;5044869;28;20047;-67
2023/03/25 02:45:09;;;;;;;0.50;0.50;;;;;;;5.70;95.95;98180.91;5044513;28;20049;-70
2023/03/25 02:47:38;;;;;;;0.40;0.40;;;;;;;5.75;95.54;98178.22;5043985;28;20029;-69
2023/03/25 02:50:10;;;;;;;0.40;0.40;;;;;;;5.74;95.98;98183.41;5044377;28;20036;-69
2023/03/25 02:52:46;;;;;;;0.57;0.57;;;;;;;5.73;95.77;98166.28;5045837;28;20025;-69
2023/03/25 02:55:15;;;;;;;0.40;0.40;;;;;;;5.73;95.70;98156.84;5044389;28;20036;-69
2023/03/25 02:57:44;;;;;;;0.40;0.40;;;;;;;5.77;95.86;98157.59;5045532;28;20079;-70
2023/03/25 03:00:16;;;;;;;0.40;0.40;;;;;;;5.77;95.37;98167.88;5045573;28;20025;-69
2023/03/25 03:02:51;;;;;;;0.50;0.50;;;;;;;5.75;95.43;98156.81;5045469;28;20032;-68
2023/03/25 03:05:32;;;;;;;0.40;0.40;;;;;;;5.71;95.38;98132.84;5045356;28;20025;-69
2023/03/25 03:08:21;;;;;;;0.40;0.40;;;;;;;5.74;95.30;98155.94;5045383;28;20420;-71
2023/03/25 03:11:01;;;;;;;0.50;0.50;;;;;;;5.76;95.03;98168.78;5045379;28;20492;-70
2023/03/25 03:13:41;;;;;;;0.50;0.50;;;;;;;5.74;95.16;98170.53;5045273;28;20025;-69
2023/03/25 03:16:25;;;;;;;0.50;0.50;;;;;;;5.72;95.11;98175.72;5045201;28;20041;-69
2023/03/25 03:19:01;;;;;;;0.40;0.40;;;;;;;5.69;95.24;98162.94;5045309;28;20025;-72
2023/03/25 03:21:59;;;;;;;0.50;0.50;;;;;;;5.56;95.05;98168.38;5045239;28;20024;-71
2023/03/25 03:24:31;;;;;;;0.40;0.40;;;;;;;5.50;95.46;98177.97;5043624;28;20097;-71
2023/03/25 03:27:04;;;;;;;0.50;0.50;;;;;;;5.42;95.84;98171.28;5045253;28;20051;-70
2023/03/25 03:29:37;;;;;;;0.50;0.50;;;;;;;5.37;96.21;98180.00;5045200;28;20030;-69
2023/03/25 03:32:12;;;;;;;0.50;0.50;;;;;;;5.35;96.60;98174.91;5043738;28;20121;-69
2023/03/25 03:34:55;;;;;;;0.50;0.50;;;;;;;5.28;96.83;98181.06;5045097;28;20017;-69
2023/03/25 03:37:33;;;;;;;0.50;0.50;;;;;;;5.14;97.03;98155.66;5044809;28;20045;-68
2023/03/25 03:40:01;;;;;;;0.40;0.40;;;;;;;5.18;97.65;98145.25;5044937;28;20048;-68
2023/03/25 03:42:44;;;;;;;2.28;1.95;;;;;;;5.18;98.02;98137.53;5044190;28;20025;-68
2023/03/25 03:45:18;;;;;;;0.40;0.40;;;;;;;5.11;98.06;98138.56;5044970;28;20431;-70
2023/03/25 03:47:48;;;;;;;0.50;0.50;;;;;;;5.10;98.65;98157.44;5044904;28;20460;-70
2023/03/25 03:50:19;;;;;;;0.40;0.40;;;;;;;5.04;98.62;98148.13;5044948;28;20564;-70
2023/03/25 03:52:53;;;;;;;0.50;0.50;;;;;;;5.10;99.04;98157.44;5043823;28;20108;-72
2023/03/25 03:55:28;;;;;;;0.50;0.50;;;;;;;5.03;99.40;98148.16;5043899;28;20030;-71
2023/03/25 03:58:04;;;;;;;0.50;0.50;;;;;;;5.08;99.67;98157.47;5045069;28;20056;-71
2023/03/25 04:00:41;;;;;;;2.35;2.25;;;;;;;5.08;99.87;98154.91;5044995;28;20041;-71
2023/03/25 04:03:15;;;;;;;4.80;1.67;;;;;;;5.06;99.98;98161.78;5044745;28;20029;-72
2023/03/25 04:05:50;;;;;;;0.98;0.98;;;;;;;5.05;100.00;98154.09;5044942;28;20026;-70
2023/03/25 04:08:28;;;;;;;0.50;0.50;;;;;;;5.03;100.00;98153.31;5043359;28;20394;-70
2023/03/25 04:11:19;;;;;;;0.40;0.40;;;;;;;5.07;100.00;98158.34;5043643;28;20288;-71
2023/03/25 04:13:49;;;;;;;0.50;0.50;;;;;;;5.08;100.00;98156.59;5044732;28;20021;-69
2023/03/25 04:16:15;;;;;;;0.50;0.50;;;;;;;5.10;100.00;98154.03;5044554;28;20045;-69
2023/03/25 04:18:42;;;;;;;0.50;0.50;;;;;;;5.09;100.00;98150.59;5043310;28;20025;-70
2023/03/25 04:21:09;;;;;;;0.50;0.50;;;;;;;5.10;100.00;98138.59;5044833;28;20075;-70
2023/03/25 04:23:36;;;;;;;0.40;0.40;;;;;;;5.06;100.00;98137.81;5043401;28;20025;-70
2023/03/25 04:26:02;;;;;;;0.50;0.50;;;;;;;5.06;100.00;98133.50;5044540;28;20151;-70
2023/03/25 04:28:28;;;;;;;0.50;0.50;;;;;;;5.08;100.00;98131.75;5044630;28;20077;-72
2023/03/25 04:30:59;;;;;;;0.40;0.40;;;;;;;5.09;100.00;98122.31;5044761;28;20040;-71
2023/03/25 04:33:25;;;;;;;0.50;0.50;;;;;;;5.12;100.00;98129.09;5044810;28;20052;-73
2023/03/25 04:35:51;;;;;;;0.50;0.50;;;;;;;5.14;100.00;98132.50;5044573;28;20076;-72
2023/03/25 04:38:18;;;;;;;0.50;0.50;;;;;;;5.16;100.00;98123.03;5043071;28;20021;-72
2023/03/25 04:40:47;;;;;;;0.50;0.50;;;;;;;5.16;100.00;98118.72;5044821;28;20025;-72
2023/03/25 04:43:16;;;;;;;0.50;0.50;;;;;;;5.20;100.00;98120.34;5044595;28;20033;-71
2023/03/25 04:45:47;;;;;;;0.40;0.40;;;;;;;5.27;100.00;98125.34;5044384;28;20075;-71
2023/03/25 04:48:23;;;;;;;0.50;0.50;;;;;;;5.23;100.00;98108.28;5043053;28;20021;-72
2023/03/25 04:50:50;;;;;;;0.50;0.50;;;;;;;5.29;100.00;98103.81;5043103;28;20036;-70
2023/03/25 04:53:16;;;;;;;0.52;0.52;;;;;;;5.30;100.00;98122.69;5044490;28;20044;-71
2023/03/25 04:55:46;;;;;;;0.50;0.50;;;;;;;5.31;100.00;98108.94;5048053;28;20021;-71
2023/03/25 04:58:14;;;;;;;0.40;0.40;;;;;;;5.31;100.00;98107.22;5046543;28;20051;-73
2023/03/25 05:00:39;;;;;;;0.47;0.47;;;;;;;5.33;100.00;98102.03;5047658;28;20032;-71
2023/03/25 05:03:05;;;;;;;0.50;0.50;;;;;;;5.29;100.00;98105.53;5047604;28;20021;-71
2023/03/25 05:05:30;;;;;;;0.40;0.40;;;;;;;5.35;100.00;98113.16;5047710;28;20029;-72
2023/03/25 05:07:57;;;;;;;0.47;0.47;;;;;;;5.35;100.00;98115.72;5047574;28;20029;-76
2023/03/25 05:10:25;;;;;;;0.40;0.40;;;;;;;5.34;100.00;98085.72;5046513;28;20025;-71
2023/03/25 05:13:06;;;;;;;0.50;0.50;;;;;;;5.38;100.00;98107.94;5047538;28;20025;-72
2023/03/25 05:15:39;;;;;;;0.40;0.40;;;;;;;5.41;100.00;98101.84;5047682;28;20022;-70
2023/03/25 05:18:15;;;;;;;0.50;0.50;;;;;;;5.43;100.00;98124.06;5045797;28;20041;-71
2023/03/25 05:20:43;;;;;;;0.50;0.50;;;;;;;5.45;100.00;98119.75;5047515;28;20097;-71
2023/03/25 05:23:11;;;;;;;0.50;0.50;;;;;;;5.44;100.00;98130.06;5047384;28;20026;-70
2023/03/25 05:25:40;;;;;;;0.50;0.50;;;;;;;5.48;100.00;98141.16;5047371;28;20081;-70
2023/03/25 05:28:08;;;;;;;0.50;0.50;;;;;;;5.49;100.00;98127.38;5047188;28;20025;-69
2023/03/25 05:30:38;;;;;;;0.50;0.50;;;;;;;5.48;100.00;98129.09;5047343;28;20036;-70
2023/03/25 05:33:10;;;;;;;0.50;0.50;;;;;;;5.46;100.00;98125.75;5047091;28;20030;-70
2023/03/25 05:35:37;;;;;;;0.50;0.50;;;;;;;5.39;100.00;98117.31;5047348;28;20052;-69
2023/03/25 05:38:11;;;;;;;0.50;0.50;;;;;;;5.38;100.00;98127.66;5046952;28;20026;-70
2023/03/25 05:40:37;;;;;;;0.50;0.50;;;;;;;5.32;100.00;98126.06;5045841;28;20092;-70
2023/03/25 05:43:02;;;;;;;0.45;0.45;;;;;;;5.33;100.00;98132.91;5047166;28;20025;-69
2023/03/25 05:45:29;;;;;;;0.50;0.50;;;;;;;5.34;100.00;98142.31;5046895;28;20036;-70
2023/03/25 05:47:55;;;;;;;0.40;0.40;;;;;;;5.31;100.00;98132.94;5045406;28;20025;-70
2023/03/25 05:50:21;;;;;;;0.40;0.40;;;;;;;5.34;100.00;98132.03;5046902;28;20039;-70
2023/03/25 05:52:48;;;;;;;0.45;0.45;;;;;;;5.34;100.00;98142.31;5045454;28;20089;-69
2023/03/25 05:55:21;;;;;;;0.50;0.50;;;;;;;5.33;100.00;98145.78;5046722;28;20131;-69
2023/03/25 05:57:47;;;;;;;0.40;0.40;;;;;;;5.30;100.00;98138.97;5046428;28;20036;-69
2023/03/25 06:00:14;;;;;;;0.50;0.50;;;;;;;5.30;100.00;98151.81;5046632;28;20025;-69
2023/03/25 06:02:41;;;;;;;0.40;0.40;;;;;;;5.31;100.00;98152.69;5045190;28;20022;-68
2023/03/25 06:05:08;;;;;;;0.50;0.50;;;;;;;5.32;100.00;98152.63;5045721;28;20029;-69
2023/03/25 06:07:38;;;;;;;0.50;0.50;;;;;;;5.32;100.00;98151.78;5044976;28;20078;-68
2023/03/25 06:10:04;;;;;;;0.40;0.40;;;;;;;5.29;100.00;98164.72;5046646;28;20389;-66
2023/03/25 06:12:32;;;;;;;0.50;0.50;;;;;;;5.30;100.00;98167.25;5046461;28;20033;-66
2023/03/25 06:14:58;;;;;;;0.50;0.50;;;;;;;5.27;100.00;98156.22;5046579;28;20049;-66
2023/03/25 06:17:24;;;;;;;0.40;0.40;;;;;;;5.32;100.00;98156.94;5046054;28;20076;-67
2023/03/25 06:19:50;;;;;;;0.50;0.50;;;;;;;5.27;100.00;98151.91;5046337;28;20029;-67
2023/03/25 06:22:15;;;;;;;0.50;0.50;;;;;;;5.35;100.00;98169.75;5044956;28;20028;-67
2023/03/25 06:24:41;;;;;;;0.50;0.50;;;;;;;5.33;100.00;98166.38;5046149;28;20374;-66
2023/03/25 06:27:15;;;;;;;0.40;0.40;;;;;;;5.35;100.00;98167.19;5045016;28;20021;-66
2023/03/25 06:29:40;;;;;;;0.50;0.50;;;;;;;5.34;100.00;98168.03;5044909;28;20031;-65
2023/03/25 06:32:07;;;;;;;0.50;0.50;;;;;;;5.37;100.00;98157.69;5045792;28;20049;-66
2023/03/25 06:34:33;;;;;;;0.40;0.40;;;;;;;5.38;100.00;98163.69;5046178;28;20101;-66
2023/03/25 06:37:00;;;;;;;0.50;0.50;;;;;;;5.42;100.00;98162.72;5044633;28;20021;-66
2023/03/25 06:39:26;;;;;;;0.40;0.40;;;;;;;5.43;100.00;98160.09;5045990;28;20025;-67
2023/03/25 06:41:51;;;;;;;0.43;0.43;;;;;;;5.49;100.00;98166.00;5045831;28;20029;-67
2023/03/25 06:44:17;;;;;;;0.40;0.40;;;;;;;5.52;100.00;98161.63;5045761;28;20025;-66
2023/03/25 06:46:42;;;;;;;0.40;0.40;;;;;;;5.57;100.00;98164.09;5045771;28;20029;-66
2023/03/25 06:49:08;;;;;;;0.45;0.45;;;;;;;5.58;100.00;98165.78;5045600;28;20040;-66
2023/03/25 06:51:34;;;;;;;0.45;0.45;;;;;;;5.58;100.00;98163.19;5045635;28;20029;-68
2023/03/25 06:53:59;;;;;;;0.40;0.40;;;;;;;5.64;100.00;98173.34;5045483;28;20084;-68
2023/03/25 06:56:25;;;;;;;0.47;0.47;;;;;;;5.69;100.00;98168.94;5045693;28;20045;-66
2023/03/25 06:58:50;;;;;;;0.40;0.40;;;;;;;5.68;100.00;98164.69;5045693;28;20081;-68
2023/03/25 07:01:15;;;;;;;0.50;0.50;;;;;;;5.72;100.00;98174.91;5045607;28;20049;-66
2023/03/25 07:03:41;;;;;;;0.50;0.50;;;;;;;5.73;100.00;98174.00;5045553;28;20030;-68
2023/03/25 07:06:07;;;;;;;0.50;0.50;;;;;;;5.68;100.00;98172.41;5044242;28;20377;-69
2023/03/25 07:08:33;;;;;;;0.40;0.40;;;;;;;5.72;100.00;98175.72;5044067;28;20036;-68
2023/03/25 07:11:03;;;;;;;0.40;0.40;;;;;;;5.73;100.00;98174.00;5044017;28;20028;-68
2023/03/25 07:13:30;;;;;;;0.50;0.50;;;;;;;5.73;100.00;98185.16;5044281;28;20028;-69
2023/03/25 07:15:56;;;;;;;0.40;0.40;;;;;;;5.68;100.00;98176.69;5043935;28;20041;-69
2023/03/25 07:18:21;;;;;;;0.40;0.40;;;;;;;5.72;100.00;98167.19;5043674;28;20056;-69
2023/03/25 07:20:47;;;;;;;0.40;0.40;;;;;;;5.75;100.00;98177.41;5045273;28;20021;-70
2023/03/25 07:23:12;;;;;;;0.50;0.50;;;;;;;5.77;100.00;98183.34;5044161;28;20310;-69
2023/03/25 07:25:38;;;;;;;0.50;0.50;;;;;;;5.85;100.00;98183.16;5045448;28;20033;-70
2023/03/25 07:28:03;;;;;;;0.50;0.50;;;;;;;5.89;100.00;98182.19;5045270;28;20040;-70
2023/03/25 07:30:29;;;;;;;0.50;0.50;;;;;;;5.91;100.00;98177.88;5045414;28;20026;-70
2023/03/25 07:32:54;;;;;;;0.40;0.40;;;;;;;5.99;100.00;98185.38;5045204;28;20543;-69
2023/03/25 07:35:20;;;;;;;0.45;0.45;;;;;;;6.01;100.00;98193.91;5045061;28;20021;-70
2023/03/25 07:37:45;;;;;;;0.43;0.43;;;;;;;5.98;100.00;98179.38;5043636;28;20104;-70
2023/03/25 07:40:11;;;;;;;0.40;0.40;;;;;;;6.03;100.00;98181.84;5045138;28;20044;-71
2023/03/25 07:42:37;;;;;;;0.40;0.40;;;;;;;6.12;100.00;98185.97;5044940;28;20025;-72
2023/03/25 07:45:06;;;;;;;0.40;0.40;;;;;;;6.17;100.00;98182.34;5044989;28;20108;-74
2023/03/25 07:47:31;;;;;;;0.40;0.40;;;;;;;6.27;100.00;98179.53;5044721;28;20028;-75
2023/03/25 07:49:57;;;;;;;0.40;0.40;;;;;;;6.43;100.00;98201.44;5045020;28;20025;-78
2023/03/25 07:52:22;;;;;;;0.50;0.50;;;;;;;6.55;100.00;98202.00;5043680;28;20059;-74
2023/03/25 07:54:48;;;;;;;0.50;0.50;;;;;;;6.59;100.00;98200.16;5044896;28;20113;-72
2023/03/25 07:57:13;;;;;;;0.40;0.40;;;;;;;6.73;100.00;98194.63;5044898;28;20038;-71
2023/03/25 07:59:39;;;;;;;0.50;0.50;;;;;;;6.84;100.00;98205.47;5044906;28;20036;-69
2023/03/25 08:02:05;;;;;;;0.40;0.40;;;;;;;6.96;100.00;98203.44;5043595;28;20053;-69
2023/03/25 08:04:31;;;;;;;0.40;0.40;;;;;;;6.95;100.00;98200.00;5044442;28;20022;-70
2023/03/25 08:06:56;;;;;;;0.40;0.40;;;;;;;6.97;100.00;98205.97;5044999;28;20125;-69
2023/03/25 08:09:22;;;;;;;0.50;0.50;;;;;;;7.06;100.00;98212.59;5043705;28;20045;-73
2023/03/25 08:11:47;;;;;;;0.47;0.47;;;;;;;7.11;100.00;98207.31;5044893;28;20029;-70
2023/03/25 08:14:13;;;;;;;0.40;0.40;;;;;;;7.18;100.00;98209.66;5044696;28;20017;-68
2023/03/25 08:16:39;;;;;;;0.40;0.40;;;;;;;7.24;100.00;98207.75;5043105;28;20049;-70
2023/03/25 08:19:04;;;;;;;0.40;0.40;;;;;;;7.30;100.00;98203.25;5044587;28;20032;-71
2023/03/25 08:21:30;;;;;;;0.50;0.50;;;;;;;7.35;100.00;98200.53;5044803;28;20021;-72
2023/03/25 08:24:03;;;;;;;0.43;0.43;;;;;;;7.67;100.00;98209.03;5044431;28;20032;-69
2023/03/25 08:26:29;;;;;;;0.50;0.50;;;;;;;7.80;100.00;98212.06;5043411;28;20181;-69
2023/03/25 08:28:56;;;;;;;0.50;0.50;;;;;;;7.72;100.00;98223.50;5045735;28;20048;-72
2023/03/25 08:31:23;;;;;;;0.40;0.40;;;;;;;7.54;100.00;98210.31;5047259;28;20021;-71
2023/03/25 08:33:49;;;;;;;0.50;0.50;;;;;;;7.57;100.00;98230.88;5048382;28;20029;-70
2023/03/25 08:36:18;;;;;;;0.40;0.40;;;;;;;7.53;100.00;98224.09;5048384;28;20060;-70
2023/03/25 08:38:46;;;;;;;0.40;0.40;;;;;;;7.69;100.00;98227.91;5047139;28;20030;-72
2023/03/25 08:41:12;;;;;;;0.50;0.50;;;;;;;7.87;100.00;98225.63;5046948;28;20037;-70
2023/03/25 08:43:38;;;;;;;0.40;0.40;;;;;;;8.00;100.00;98218.31;5048409;28;20052;-78
2023/03/25 08:46:03;;;;;;;0.40;0.40;;;;;;;8.06;100.00;98209.50;5046798;28;20061;-72
2023/03/25 08:48:29;;;;;;;0.40;0.40;;;;;;;8.17;100.00;98225.50;5047540;28;20037;-71
2023/03/25 08:50:55;;;;;;;0.40;0.40;;;;;;;8.18;100.00;98223.75;5046572;28;20021;-71
2023/03/25 08:53:20;;;;;;;0.40;0.40;;;;;;;8.09;100.00;98218.88;5048000;28;20074;-71
2023/03/25 08:55:49;;;;;;;0.40;0.40;;;;;;;8.04;100.00;98214.72;5046076;28;20037;-71
2023/03/25 08:58:14;;;;;;;0.40;0.40;;;;;;;7.91;100.00;98216.00;5046304;28;20037;-72
2023/03/25 09:00:40;;;;;;;0.50;0.50;;;;;;;7.96;100.00;98233.94;5046780;28;20021;-70
2023/03/25 09:03:05;;;;;;;0.40;0.40;;;;;;;7.87;100.00;98228.22;5047776;28;20056;-72
2023/03/25 09:05:31;;;;;;;0.40;0.40;;;;;;;7.90;100.00;98215.19;5046356;28;20025;-68
2023/03/25 09:07:56;;;;;;;0.43;0.43;;;;;;;8.01;100.00;98235.50;5047795;28;20028;-71
2023/03/25 09:10:22;;;;;;;0.40;0.40;;;;;;;8.00;100.00;98235.56;5047940;28;20033;-70
2023/03/25 09:12:47;;;;;;;0.40;0.40;;;;;;;7.99;100.00;98232.13;5047540;28;20022;-70
2023/03/25 09:15:13;;;;;;;0.50;0.50;;;;;;;8.17;100.00;98232.41;5047786;28;20025;-69
2023/03/25 09:17:41;;;;;;;0.40;0.40;;;;;;;8.42;100.00;98240.16;5047533;28;20052;-68
2023/03/25 09:20:07;;;;;;;0.40;0.40;;;;;;;8.64;100.00;98234.25;5047712;28;20363;-69
2023/03/25 09:22:34;;;;;;;0.40;0.40;;;;;;;8.62;100.00;98256.78;5046304;28;20048;-69
2023/03/25 09:24:59;;;;;;;0.60;0.60;;;;;;;8.46;100.00;98247.81;5047503;28;20017;-70
2023/03/25 09:27:25;;;;;;;0.40;0.40;;;;;;;8.22;100.00;98243.44;5047408;28;20026;-71
2023/03/25 09:29:51;;;;;;;0.40;0.40;;;;;;;8.09;100.00;98253.34;5047463;28;20085;-69
2023/03/25 09:32:17;;;;;;;0.40;0.40;;;;;;;7.86;100.00;98257.50;5047309;28;20044;-69
2023/03/25 09:34:43;;;;;;;0.40;0.40;;;;;;;7.73;100.00;98267.38;5047435;28;20028;-70
2023/03/25 09:37:09;;;;;;;0.50;0.50;;;;;;;7.63;100.00;98266.84;5046064;28;20028;-71
2023/03/25 09:39:35;;;;;;;0.40;0.40;;;;;;;7.56;100.00;98273.91;5045860;28;20056;-70
2023/03/25 09:42:06;;;;;;;0.38;0.38;;;;;;;7.42;100.00;98274.34;5047371;28;20454;-69
2023/03/25 09:44:49;;;;;;;0.40;0.40;;;;;;;7.35;100.00;98277.16;5047142;28;20025;-70
2023/03/25 09:47:17;;;;;;;0.50;0.50;;;;;;;7.15;100.00;98271.69;5047186;28;20085;-69
2023/03/25 09:49:52;;;;;;;0.40;0.40;;;;;;;7.04;100.00;98272.00;5047110;28;20026;-71
2023/03/25 09:52:24;;;;;;;0.50;0.50;;;;;;;6.88;100.00;98270.72;5047228;28;20021;-73
2023/03/25 09:54:54;;;;;;;0.40;0.40;;;;;;;6.80;100.00;98276.94;5045801;28;20084;-72
2023/03/25 09:57:29;;;;;;;0.40;0.40;;;;;;;6.71;100.00;98276.34;5045651;28;20027;-71
2023/03/25 09:59:57;;;;;;;0.40;0.40;;;;;;;6.63;100.00;98277.38;5046862;28;20029;-73
2023/03/25 10:02:38;;;;;;;0.40;0.40;;;;;;;6.65;100.00;98283.34;5045449;28;20037;-74
2023/03/25 10:05:30;;;;;;;0.40;0.40;;;;;;;6.64;100.00;98286.84;5045395;28;20029;-73
2023/03/25 10:08:12;;;;;;;0.40;0.40;;;;;;;6.65;100.00;98280.78;5045443;28;20075;-73
2023/03/25 10:10:51;;;;;;;0.50;0.50;;;;;;;6.74;100.00;98289.16;5045385;28;20034;-72
2023/03/25 10:13:19;;;;;;;0.40;0.40;;;;;;;6.83;100.00;98286.31;5045458;28;20025;-71
2023/03/25 10:16:19;;;;;;;0.50;0.50;;;;;;;6.90;100.00;98293.00;5046560;28;20025;-69
2023/03/25 10:19:28;;;;;;;0.40;0.40;;;;;;;6.96;100.00;98296.31;5044930;28;20049;-70
2023/03/25 10:22:02;;;;;;;0.47;0.47;;;;;;;7.07;100.00;98302.88;5045245;28;20033;-71
2023/03/25 10:24:33;;;;;;;0.40;0.40;;;;;;;7.15;100.00;98301.78;5045130;28;20022;-70
2023/03/25 10:27:04;;;;;;;0.40;0.40;;;;;;;7.17;100.00;98305.19;5046519;28;20029;-71
2023/03/25 10:29:41;;;;;;;0.60;0.60;;;;;;;7.16;100.00;98304.34;5046428;28;20093;-69
2023/03/25 10:32:16;;;;;;;0.50;0.50;;;;;;;7.21;100.00;98306.78;5046318;28;20081;-70
2023/03/25 10:34:51;;;;;;;0.60;0.60;;;;;;;7.25;100.00;98304.97;5044732;28;20088;-69
2023/03/25 10:37:27;;;;;;;0.50;0.50;;;;;;;7.31;100.00;98304.78;5044754;28;20373;-70
2023/03/25 10:39:57;;;;;;;0.40;0.40;;;;;;;7.38;100.00;98306.28;5044534;28;20017;-69
2023/03/25 10:42:38;;;;;;;0.40;0.40;;;;;;;7.51;100.00;98303.34;5044799;28;20029;-70
2023/03/25 10:45:12;;;;;;;0.50;0.50;;;;;;;7.66;100.00;98300.31;5046033;28;20036;-69
2023/03/25 10:47:40;;;;;;;0.40;0.40;;;;;;;7.80;100.00;98301.63;5045690;28;20040;-69
2023/03/25 10:50:09;;;;;;;0.40;0.40;;;;;;;7.80;100.00;98292.13;5045926;28;20032;-69
2023/03/25 10:52:35;;;;;;;0.40;0.40;;;;;;;7.96;100.00;98304.56;5045514;28;20086;-71
2023/03/25 10:55:01;;;;;;;0.40;0.40;;;;;;;7.94;100.00;98296.88;5045796;28;20029;-70
2023/03/25 10:57:29;;;;;;;0.40;0.40;;;;;;;7.96;100.00;98309.72;5044556;28;20079;-69
2023/03/25 11:00:17;;;;;;;0.40;0.40;;;;;;;7.94;100.00;98309.78;5044389;28;20083;-71
2023/03/25 11:02:43;;;;;;;0.50;0.50;;;;;;;7.91;100.00;98316.78;5045491;28;20032;-71
2023/03/25 11:05:11;;;;;;;0.40;0.40;;;;;;;7.82;100.00;98305.00;5045833;28;20028;-71
2023/03/25 11:07:44;;;;;;;0.40;0.40;;;;;;;7.77;100.00;98309.47;5045754;28;20028;-71
2023/03/25 11:10:13;;;;;;;0.40;0.40;;;;;;;7.69;100.00;98307.97;5045772;28;20112;-69
2023/03/25 11:12:50;;;;;;;0.40;0.40;;;;;;;7.64;100.00;98304.66;5044449;28;20029;-70
2023/03/25 11:15:30;;;;;;;0.40;0.40;;;;;;;7.59;100.00;98297.97;5045662;28;20037;-69
2023/03/25 11:18:11;;;;;;;0.40;0.40;;;;;;;7.57;100.00;98305.75;5043770;28;20522;-70
2023/03/25 11:20:38;;;;;;;0.40;0.40;;;;;;;7.57;100.00;98293.69;5044139;28;20033;-70
2023/03/25 11:23:11;;;;;;;0.50;0.50;;;;;;;7.75;100.00;98306.06;5045420;28;20105;-69
2023/03/25 11:25:40;;;;;;;0.50;0.50;;;;;;;7.86;100.00;98305.75;5045232;28;20029;-68
2023/03/25 11:28:18;;;;;;;0.40;0.40;;;;;;;7.84;100.00;98308.41;5043743;28;20047;-70
2023/03/25 11:31:05;;;;;;;0.75;0.75;;;;;;;7.89;100.00;98314.25;5044021;28;20025;-69
2023/03/25 11:33:30;;;;;;;0.40;0.40;;;;;;;7.79;100.00;98302.50;5045025;28;20017;-68
2023/03/25 11:36:16;;;;;;;0.50;0.50;;;;;;;7.71;99.51;98307.91;5045252;28;20084;-70
2023/03/25 11:38:45;;;;;;;0.43;0.43;;;;;;;7.72;99.25;98321.66;5045241;28;20021;-70
2023/03/25 11:41:13;;;;;;;0.60;0.60;;;;;;;7.68;98.89;98319.16;5043873;28;20029;-71
2023/03/25 11:43:39;;;;;;;0.40;0.40;;;;;;;7.75;99.25;98316.41;5045203;28;20164;-71
2023/03/25 11:46:13;;;;;;;0.50;0.50;;;;;;;7.80;98.37;98325.72;5044948;28;20029;-69
2023/03/25 11:48:41;;;;;;;0.40;0.40;;;;;;;7.88;99.24;98317.72;5044984;28;20029;-71